• Join FlightAware (Why Join?)
  • Login
  • US Flag 
04:35AM EDT


 

Airport Tracker/Info


-or-


 

Live Flight TrackerFlight Track Log ✈ JBU661 ✈ 20-Jun-2013 ✈ KJFK - TBPB / BGI

Flight Track Log - Related Links

Times and Time Zones

All times are in EDT time to prevent confusion due to time zone crossing. See the JBU661 flight status page for this flight to view local times or setup timezone preferences in your user account.

Time Position Orientation Groundspeed Altitude Reporting Facility
EDT Latitude Longitude Course Direction KTS MPH feet Rate Location/Type
08:25AM 40.6000 -73.8000 128° Southeast 172 198 1,300  Level New York TRACON
08:26AM 40.5500 -73.7667 153° Southeast 255 293 2,300 2,160 Climbing New York TRACON
08:27AM 40.4403 -73.4282 128° Southeast  Level FlightAware Approximate
08:28AM 40.3630 -73.3028 131° Southeast  Level FlightAware Approximate
08:28AM 40.4803 -73.5814 116° Southeast 292 336 8,200  Level New York Center
08:29AM 40.2844 -73.1792 128° Southeast  Level FlightAware Approximate
08:29AM 40.4428 -73.4981 121° Southeast 297 342 10,300  Level New York Center
08:30AM 40.2086 -73.0525 128° Southeast  Level FlightAware Approximate
08:30AM 40.3872 -73.3786 121° Southeast 334 384 11,300  Level New York Center
08:31AM 40.3394 -73.2708 120° Southeast 377 434 12,800 1,680 Climbing New York Center
08:32AM 40.2650 -73.1403 127° Southeast 393 452 14,800 1,680 Climbing New York Center
08:33AM 40.2025 -73.0375 129° Southeast 408 470 16,200 1,440 Climbing New York Center
08:34AM 40.1192 -72.9261 134° Southeast 413 475 17,700 1,380 Climbing New York Center
08:35AM 40.0272 -72.8203 139° Southeast 426 490 19,000 1,500 Climbing New York Center
08:36AM 39.9353 -72.7200 140° Southeast 437 503 20,800 1,800 Climbing New York Center
08:37AM 39.8453 -72.6175 139° Southeast 437 503 22,700 1,560 Climbing New York Center
08:38AM 39.7550 -72.5153 139° Southeast 432 497 24,000 1,260 Climbing New York Center
08:39AM 39.6650 -72.4106 138° Southeast 432 497 25,200 1,200 Climbing New York Center
08:40AM 39.5725 -72.3086 140° Southeast 432 497 26,400 900 Climbing New York Center
08:41AM 39.4800 -72.2044 139° Southeast 432 497 27,100 660 Climbing New York Center
08:42AM 39.3833 -72.1003 140° Southeast 439 505 27,800 780 Climbing New York Center
08:43AM 39.2867 -71.9858 137° Southeast 459 528 28,700 960 Climbing New York Center
08:44AM 39.1878 -71.8742 139° Southeast 466 536 29,800 780 Climbing New York Center
08:45AM 39.0886 -71.7683 140° Southeast 466 536 30,300 480 Climbing New York Center
08:46AM 38.9872 -71.6600 140° Southeast 471 542 30,800 660 Climbing New York Center
08:47AM 38.8861 -71.5439 138° Southeast 476 548 31,700 780 Climbing New York Center
08:48AM 38.7844 -71.4336 140° Southeast 476 548 32,400 540 Climbing New York Center
08:49AM 38.6872 -71.3208 138° Southeast 476 548 32,900 300 Climbing New York Center
08:50AM 38.5833 -71.2192 143° Southeast 476 548 33,000  Climbing New York Center
08:51AM 38.4858 -71.1069 138° Southeast 476 548 33,000  Level New York Center
08:52AM 38.3839 -71.0058 142° Southeast 476 548 33,000  Level New York Center
08:53AM 38.2839 -70.8969 139° Southeast 471 542 33,000 -60 Level New York Center
08:54AM 38.1861 -70.7936 140° Southeast 471 542 32,900 -60 Descending New York Center
08:55AM 38.0881 -70.6986 143° Southeast 460 529 32,900  Level New York Center
08:56AM 37.9878 -70.5958 141° Southeast 460 529 32,900  Level New York Center
08:57AM 37.8794 -70.5197 151° Southeast 460 529 33,000 60 Climbing New York Center
08:58AM 38.0000 -70.5833 153° Southeast 460 529 33,000  Level New York Oceanic (ODAPS)
08:59AM 37.6392 -70.3892 153° Southeast 448 516 33,000  Level New York Center
09:01AM 37.4894 -70.2492 154° Southeast  Level FlightAware Approximate
09:08AM 36.7293 -69.7919 154° Southeast  Level FlightAware Approximate
09:09AM 36.6206 -69.7273 155° Southeast  Level FlightAware Approximate
09:10AM 36.5118 -69.6628 155° Southeast  Level FlightAware Approximate
09:11AM 36.4030 -69.5986 155° Southeast  Level FlightAware Approximate
09:12AM 36.2942 -69.5346 155° Southeast  Level FlightAware Approximate
09:13AM 36.1853 -69.4707 155° Southeast  Level FlightAware Approximate
09:14AM 36.0856 -69.3885 142° Southeast  Level FlightAware Approximate
09:14AM 36.1667 -69.4500 143° Southeast 456 525 33,000  Level New York Oceanic (ODAPS)
09:15AM 35.9901 -69.2976 142° Southeast  Level FlightAware Approximate
09:16AM 35.8946 -69.2069 142° Southeast  Level FlightAware Approximate
09:17AM 35.7991 -69.1165 142° Southeast  Level FlightAware Approximate
09:18AM 35.7035 -69.0263 143° Southeast  Level FlightAware Approximate
09:19AM 35.6078 -68.9363 143° Southeast  Level FlightAware Approximate
09:20AM 35.3568 -68.6921 143° Southeast 456 525 33,000  Level FlightAware Transoceanic
09:21AM 35.2552 -68.5984 143° Southeast 456 525 33,000  Level FlightAware Transoceanic
09:22AM 35.1536 -68.5050 143° Southeast 456 525 33,000  Level FlightAware Transoceanic
09:23AM 35.0519 -68.4118 143° Southeast 456 525 33,000  Level FlightAware Transoceanic
09:24AM 34.9501 -68.3188 143° Southeast 456 525 33,000  Level FlightAware Transoceanic
09:25AM 34.8482 -68.2261 143° Southeast 456 525 33,000  Level FlightAware Transoceanic
09:26AM 34.7463 -68.1336 143° Southeast 456 525 33,000  Level FlightAware Transoceanic
09:27AM 34.6443 -68.0413 143° Southeast 456 525 33,000  Level FlightAware Transoceanic
09:28AM 34.5423 -67.9493 143° Southeast 456 525 33,000  Level FlightAware Transoceanic
09:29AM 34.4401 -67.8575 143° Southeast 456 525 33,000  Level FlightAware Transoceanic
09:30AM 34.3379 -67.7659 144° Southeast 456 525 33,000  Level FlightAware Transoceanic
09:31AM 34.2357 -67.6745 144° Southeast 456 525 33,000  Level FlightAware Transoceanic
09:32AM 34.1333 -67.5833 170° South 456 525 33,000  Level FlightAware Transoceanic
09:33AM 34.0056 -67.5558 170° South 456 525 33,000  Level FlightAware Transoceanic
09:34AM 33.8779 -67.5285 170° South 456 525 33,000  Level FlightAware Transoceanic
09:35AM 33.7503 -67.5011 170° South 456 525 33,000  Level FlightAware Transoceanic
09:36AM 33.6226 -67.4739 170° South 456 525 33,000  Level FlightAware Transoceanic
09:36AM 34.1333 -67.5833 170° South 453 521 33,000  Level New York Oceanic (ODAPS)
09:37AM 33.4948 -67.4467 170° South 456 525 33,000  Level FlightAware Transoceanic
09:38AM 33.3671 -67.4197 170° South 456 525 33,000  Level FlightAware Transoceanic
09:39AM 33.2394 -67.3927 170° South 456 525 33,000  Level FlightAware Transoceanic
09:40AM 33.1117 -67.3657 170° South 456 525 33,000  Level FlightAware Transoceanic
09:41AM 32.9839 -67.3389 170° South 456 525 33,000  Level FlightAware Transoceanic
09:42AM 32.7698 -67.2941 170° South 453 521 33,000  Level FlightAware Transoceanic
09:43AM 32.6458 -67.2682 170° South 453 521 33,000  Level FlightAware Transoceanic
09:44AM 32.5218 -67.2424 170° South 453 521 33,000  Level FlightAware Transoceanic
09:45AM 32.3978 -67.2167 170° South 453 521 33,000  Level FlightAware Transoceanic
09:46AM 32.2738 -67.1911 170° South 453 521 33,000  Level FlightAware Transoceanic
09:47AM 32.1498 -67.1655 170° South 453 521 33,000  Level FlightAware Transoceanic
09:48AM 32.0257 -67.1400 170° South 453 521 33,000  Level FlightAware Transoceanic
09:49AM 31.9017 -67.1146 170° South 453 521 33,000  Level FlightAware Transoceanic
09:50AM 31.7777 -67.0892 170° South 453 521 33,000  Level FlightAware Transoceanic
09:51AM 31.6537 -67.0639 170° South 453 521 33,000  Level FlightAware Transoceanic
09:52AM 31.5296 -67.0387 170° South 453 521 33,000  Level FlightAware Transoceanic
09:53AM 31.4056 -67.0135 170° South 453 521 33,000  Level FlightAware Transoceanic
09:54AM 31.2815 -66.9884 170° South 453 521 33,000  Level FlightAware Transoceanic
09:55AM 31.1575 -66.9634 170° South 453 521 33,000  Level FlightAware Transoceanic
09:56AM 31.0334 -66.9385 170° South 453 521 33,000  Level FlightAware Transoceanic
09:57AM 30.9093 -66.9136 170° South 453 521 33,000  Level FlightAware Transoceanic
09:58AM 30.7853 -66.8887 170° South 453 521 33,000  Level FlightAware Transoceanic
09:59AM 30.6612 -66.8640 170° South 453 521 33,000  Level FlightAware Transoceanic
10:00AM 30.5371 -66.8393 170° South 453 521 33,000  Level FlightAware Transoceanic
10:01AM 30.4130 -66.8146 170° South 453 521 33,000  Level FlightAware Transoceanic
10:02AM 30.2889 -66.7900 170° South 453 521 33,000  Level FlightAware Transoceanic
10:03AM 30.1649 -66.7655 170° South 453 521 33,000  Level FlightAware Transoceanic
10:04AM 30.0408 -66.7411 170° South 453 521 33,000  Level FlightAware Transoceanic
10:05AM 29.9167 -66.7167 170° South 453 521 33,000 1,500 Level FlightAware Transoceanic
10:05AM 29.9167 -66.7167 170° South 448 516 35,000  Climbing New York Oceanic (ODAPS)
10:06AM 29.7957 -66.6930 170° South 453 521 33,000 -1,200 Descending FlightAware Transoceanic
10:07AM 29.6747 -66.6694 170° South 453 521 33,000  Level FlightAware Transoceanic
10:08AM 29.5537 -66.6459 170° South 453 521 33,000  Level FlightAware Transoceanic
10:09AM 29.4328 -66.6224 170° South 453 521 33,000  Level FlightAware Transoceanic
10:10AM 29.3118 -66.5990 170° South 453 521 33,000 960 Level FlightAware Transoceanic
10:11AM 29.0535 -66.5492 170° South 448 516 35,000 960 Climbing FlightAware Transoceanic
10:12AM 28.9302 -66.5255 170° South 448 516 35,000  Level FlightAware Transoceanic
10:13AM 28.8068 -66.5019 170° South 448 516 35,000  Level FlightAware Transoceanic
10:14AM 28.6835 -66.4783 170° South 448 516 35,000  Level FlightAware Transoceanic
10:15AM 28.5601 -66.4548 171° South 448 516 35,000  Level FlightAware Transoceanic
10:16AM 28.4368 -66.4313 171° South 448 516 35,000  Level FlightAware Transoceanic
10:17AM 28.3134 -66.4079 171° South 448 516 35,000  Level FlightAware Transoceanic
10:18AM 28.1901 -66.3845 171° South 448 516 35,000  Level FlightAware Transoceanic
10:19AM 28.0667 -66.3612 171° South 448 516 35,000  Level FlightAware Transoceanic
10:20AM 27.9434 -66.3380 171° South 448 516 35,000  Level FlightAware Transoceanic
10:21AM 27.8200 -66.3148 171° South 448 516 35,000  Level FlightAware Transoceanic
10:22AM 27.6966 -66.2916 171° South 448 516 35,000  Level FlightAware Transoceanic
10:23AM 27.5733 -66.2685 171° South 448 516 35,000  Level FlightAware Transoceanic
10:24AM 27.4499 -66.2455 171° South 448 516 35,000  Level FlightAware Transoceanic
10:25AM 27.3265 -66.2225 171° South 448 516 35,000  Level FlightAware Transoceanic
10:26AM 27.2031 -66.1996 171° South 448 516 35,000  Level FlightAware Transoceanic
10:27AM 27.0797 -66.1767 171° South 448 516 35,000  Level FlightAware Transoceanic
10:28AM 26.9564 -66.1538 171° South 448 516 35,000  Level FlightAware Transoceanic
10:29AM 26.8330 -66.1311 171° South 448 516 35,000  Level FlightAware Transoceanic
10:30AM 26.7096 -66.1083 171° South 448 516 35,000  Level FlightAware Transoceanic
10:31AM 26.5862 -66.0856 171° South 448 516 35,000  Level FlightAware Transoceanic
10:32AM 26.4627 -66.0630 171° South 448 516 35,000  Level FlightAware Transoceanic
10:33AM 26.3393 -66.0404 171° South 448 516 35,000  Level FlightAware Transoceanic
10:34AM 26.2159 -66.0178 171° South 448 516 35,000  Level FlightAware Transoceanic
10:35AM 26.0925 -65.9954 171° South 448 516 35,000  Level FlightAware Transoceanic
10:36AM 25.9691 -65.9729 171° South 448 516 35,000  Level FlightAware Transoceanic
10:37AM 25.8457 -65.9505 171° South 448 516 35,000  Level FlightAware Transoceanic
10:38AM 25.7222 -65.9281 171° South 448 516 35,000  Level FlightAware Transoceanic
10:39AM 25.5988 -65.9058 171° South 448 516 35,000  Level FlightAware Transoceanic
10:40AM 25.4754 -65.8836 171° South 448 516 35,000  Level FlightAware Transoceanic
10:41AM 25.3519 -65.8614 171° South 448 516 35,000  Level FlightAware Transoceanic
10:42AM 25.2285 -65.8392 171° South 448 516 35,000  Level FlightAware Transoceanic
10:43AM 25.1051 -65.8170 171° South 448 516 35,000  Level FlightAware Transoceanic
10:44AM 24.9816 -65.7950 171° South 448 516 35,000  Level FlightAware Transoceanic
10:45AM 24.8582 -65.7729 171° South 448 516 35,000  Level FlightAware Transoceanic
10:46AM 24.7347 -65.7509 171° South 448 516 35,000  Level FlightAware Transoceanic
10:47AM 24.6112 -65.7290 171° South 448 516 35,000  Level FlightAware Transoceanic
10:48AM 24.4878 -65.7071 171° South 448 516 35,000  Level FlightAware Transoceanic
10:49AM 24.3643 -65.6852 171° South 448 516 35,000  Level FlightAware Transoceanic
10:50AM 24.2409 -65.6634 171° South 448 516 35,000  Level FlightAware Transoceanic
10:51AM 24.1174 -65.6416 171° South 448 516 35,000  Level FlightAware Transoceanic
10:52AM 23.9939 -65.6199 171° South 448 516 35,000  Level FlightAware Transoceanic
10:53AM 23.8704 -65.5982 171° South 448 516 35,000  Level FlightAware Transoceanic
10:54AM 23.7470 -65.5765 171° South 448 516 35,000  Level FlightAware Transoceanic
10:55AM 23.6235 -65.5549 171° South 448 516 35,000  Level FlightAware Transoceanic
10:56AM 23.5000 -65.5333 165° South 448 516 35,000  Level FlightAware Transoceanic
10:57AM 23.3809 -65.4995 165° South 448 516 35,000  Level FlightAware Transoceanic
10:58AM 23.2618 -65.4656 165° South 448 516 35,000  Level FlightAware Transoceanic
10:59AM 23.1427 -65.4319 165° South 448 516 35,000  Level FlightAware Transoceanic
11:00AM 23.0236 -65.3981 165° South 448 516 35,000  Level FlightAware Transoceanic
11:00AM 23.5000 -65.5333 165° South 433 498 35,000  Level New York Oceanic (ODAPS)
11:01AM 22.9044 -65.3645 165° South 448 516 35,000  Level FlightAware Transoceanic
11:02AM 22.7853 -65.3309 165° South 448 516 35,000  Level FlightAware Transoceanic
11:03AM 22.6661 -65.2974 165° South 448 516 35,000  Level FlightAware Transoceanic
11:04AM 22.5470 -65.2639 165° South 448 516 35,000  Level FlightAware Transoceanic
11:05AM 22.4278 -65.2305 165° South 448 516 35,000  Level FlightAware Transoceanic
11:06AM 22.3087 -65.1972 165° South 448 516 35,000  Level FlightAware Transoceanic
11:07AM 22.4278 -65.2305 165° South 433 498 35,000  Level FlightAware Transoceanic
11:08AM 22.3087 -65.1972 165° South 433 498 35,000  Level FlightAware Transoceanic
11:08AM 22.3667 -65.2667 166° South 400 460 35,000  Level San Juan Center
11:09AM 22.1895 -65.1639 166° South 433 498 35,000  Level FlightAware Transoceanic
11:09AM 22.2667 -65.2333 163° South 410 472 35,000  Level San Juan Center
11:10AM 22.0703 -65.1306 166° South 433 498 35,000  Level FlightAware Transoceanic
11:10AM 22.1333 -65.1833 161° South 450 518 35,000  Level San Juan Center
11:11AM 21.9511 -65.0974 166° South 433 498 35,000  Level FlightAware Transoceanic
11:11AM 22.0167 -65.1500 165° South 440 506 35,000  Level San Juan Center
11:12AM 21.8319 -65.0643 166° South 433 498 35,000  Level FlightAware Transoceanic
11:12AM 21.9167 -65.0833 148° Southeast 410 472 35,000  Level San Juan Center
11:13AM 21.7127 -65.0312 166° South 433 498 35,000  Level FlightAware Transoceanic
11:13AM 21.8167 -65.0333 155° Southeast 400 460 35,000  Level San Juan Center
11:14AM 21.7000 -64.9667 152° Southeast 440 506 35,000  Level San Juan Center
11:15AM 21.6000 -64.9000 148° Southeast 420 483 35,000  Level San Juan Center
11:16AM 21.5000 -64.8333 148° Southeast 430 495 35,000  Level San Juan Center
11:17AM 21.4000 -64.7667 148° Southeast 430 495 35,000  Level San Juan Center
11:18AM 21.3000 -64.7000 148° Southeast 420 483 35,000  Level San Juan Center
11:19AM 21.2000 -64.6500 155° Southeast 410 472 35,000  Level San Juan Center
11:20AM 21.1000 -64.5833 148° Southeast 420 483 35,000  Level San Juan Center
11:21AM 20.9833 -64.5167 152° Southeast 440 506 35,000  Level San Juan Center
11:22AM 20.8833 -64.4500 148° Southeast 430 495 35,000  Level San Juan Center
11:23AM 20.7667 -64.3833 152° Southeast 440 506 35,000  Level San Juan Center
11:24AM 20.6667 -64.3167 148° Southeast 420 483 35,000  Level San Juan Center
11:25AM 20.5667 -64.2500 148° Southeast 430 495 35,000  Level San Juan Center
11:26AM 20.4500 -64.2000 158° South 430 495 35,000  Level San Juan Center
11:27AM 20.3500 -64.1333 148° Southeast 430 495 35,000  Level San Juan Center
11:28AM 20.2500 -64.0667 148° Southeast 430 495 35,000  Level San Juan Center
11:29AM 20.1333 -64.0000 152° Southeast 430 495 35,000  Level San Juan Center
11:30AM 20.0333 -63.9333 148° Southeast 430 495 35,000  Level San Juan Center
11:31AM 19.9333 -63.8833 155° Southeast 430 495 35,000  Level San Juan Center
11:32AM 19.8333 -63.8167 148° Southeast 430 495 35,000  Level San Juan Center
11:33AM 19.7167 -63.7500 152° Southeast 430 495 35,000  Level San Juan Center
11:34AM 19.6167 -63.6833 148° Southeast 430 495 35,000  Level San Juan Center
11:35AM 19.5000 -63.6333 158° South 440 506 35,000  Level San Juan Center
11:36AM 19.4000 -63.5667 148° Southeast 440 506 35,000  Level San Juan Center
11:37AM 19.3000 -63.5000 148° Southeast 440 506 35,000  Level San Juan Center
11:38AM 19.1833 -63.4500 158° South 440 506 35,000  Level San Juan Center
11:39AM 19.0667 -63.3833 152° Southeast 440 506 35,000  Level San Juan Center
11:40AM 18.9667 -63.3167 148° Southeast 440 506 35,000  Level San Juan Center
11:41AM 18.8500 -63.2500 152° Southeast 440 506 35,000  Level San Juan Center
11:42AM 18.7500 -63.1833 148° Southeast 440 506 35,000  Level San Juan Center
11:44AM 18.5500 -63.0667 151° Southeast 440 506 35,000  Level San Juan Center
11:45AM 18.4333 -63.0000 152° Southeast 440 506 35,000  Level San Juan Center
11:46AM 18.3167 -62.9333 152° Southeast 440 506 35,000  Level San Juan Center
11:47AM 18.2000 -62.8667 152° Southeast 440 506 35,000  Level San Juan Center
11:48AM 18.1000 -62.8167 155° Southeast 440 506 35,000  Level San Juan Center
11:49AM 17.9833 -62.7500 151° Southeast 450 518 35,000  Level San Juan Center
11:50AM 17.8833 -62.6833 148° Southeast 440 506 35,000  Level San Juan Center
11:51AM 17.7667 -62.6167 151° Southeast 440 506 35,000  Level San Juan Center
11:52AM 17.6667 -62.5500 148° Southeast 460 529 35,000  Level San Juan Center
11:53AM 17.5667 -62.4667 142° Southeast 460 529 35,000  Level San Juan Center
11:54AM 17.5000 -62.3500 121° Southeast 460 529 35,000  Level San Juan Center
11:55AM 17.4333 -62.2500 125° Southeast 460 529 35,000  Level San Juan Center
11:57AM 17.3228 -62.0926 126° Southeast  Level FlightAware Approximate
12:04PM 16.7446 -61.5789 150° Southeast  Level FlightAware Approximate
12:05PM 16.6483 -61.5218 150° Southeast  Level FlightAware Approximate
12:06PM 16.5518 -61.4651 151° Southeast  Level FlightAware Approximate
12:07PM 16.4549 -61.4091 151° Southeast  Level FlightAware Approximate
12:08PM 16.3580 -61.3532 151° Southeast  Level FlightAware Approximate
12:09PM 16.2611 -61.2973 151° Southeast  Level FlightAware Approximate
12:10PM 16.1641 -61.2415 151° Southeast  Level FlightAware Approximate
12:11PM 16.0672 -61.1858 151° Southeast  Level FlightAware Approximate
12:12PM 15.9702 -61.1301 151° Southeast  Level FlightAware Approximate
12:13PM 15.8732 -61.0745 151° Southeast  Level FlightAware Approximate
12:14PM 15.7762 -61.0189 151° Southeast  Level FlightAware Approximate
12:15PM 15.6792 -60.9633 151° Southeast  Level FlightAware Approximate
12:16PM 15.5822 -60.9078 151° Southeast  Level FlightAware Approximate
12:17PM 15.4852 -60.8524 151° Southeast  Level FlightAware Approximate
12:18PM 15.3882 -60.7970 151° Southeast  Level FlightAware Approximate
12:19PM 15.2911 -60.7417 151° Southeast  Level FlightAware Approximate
12:20PM 15.1940 -60.6864 151° Southeast  Level FlightAware Approximate
12:21PM 15.0969 -60.6312 151° Southeast  Level FlightAware Approximate
12:22PM 14.9998 -60.5760 151° Southeast  Level FlightAware Approximate
12:23PM 14.9042 -60.5182 149° Southeast  Level FlightAware Approximate
12:24PM 14.8088 -60.4599 149° Southeast  Level FlightAware Approximate
12:25PM 14.7135 -60.4017 149° Southeast  Level FlightAware Approximate
12:26PM 14.6174 -60.3450 147° Southeast  Level FlightAware Approximate
12:27PM 14.5202 -60.2903 152° Southeast  Level FlightAware Approximate
12:28PM 14.4220 -60.2375 152° Southeast  Level FlightAware Approximate
12:29PM 14.3238 -60.1846 152° Southeast  Level FlightAware Approximate
12:30PM 14.2256 -60.1317 152° Southeast  Level FlightAware Approximate
12:31PM 14.1281 -60.0775 150° Southeast  Level FlightAware Approximate
12:32PM 14.0317 -60.0212 150° Southeast  Level FlightAware Approximate
12:33PM 13.9354 -59.9650 150° Southeast  Level FlightAware Approximate
12:34PM 13.8390 -59.9088 150° Southeast  Level FlightAware Approximate
12:35PM 13.7423 -59.8531 152° Southeast  Level FlightAware Approximate
12:36PM 13.6448 -59.7990 152° Southeast  Level FlightAware Approximate
12:37PM 13.5471 -59.7454 152° Southeast  Level FlightAware Approximate
12:38PM 13.4493 -59.6920 152° Southeast  Level FlightAware Approximate
12:39PM 13.3518 -59.6380 152° Southeast  Level FlightAware Approximate
12:40PM 13.2548 -59.5829 150° Southeast  Level FlightAware Approximate
12:41PM 13.1575 -59.5288 154° Southeast  Level FlightAware Approximate
12:42PM 13.0746 -59.4925 90° East  Level Estimated
12:43PM 13.0746 -59.4925 90° East  Level Estimated
12:44PM 13.0746 -59.4925 90° East  Level Estimated
12:45PM 13.0746 -59.4925 90° East  Level Estimated
12:46PM 13.0746 -59.4925 90° East  Level Estimated
12:47PM 13.0746 -59.4925 90° East  Level Estimated
12:48PM 13.0746 -59.4925 90° East  Level Estimated
12:49PM 13.0746 -59.4925 90° East  Level Estimated
12:50PM 13.0746 -59.4925 90° East  Level Estimated
12:51PM 13.0746 -59.4925 90° East  Level Estimated